createdAt,value
2018-11-26T00:00:39.286Z,94.67
2018-11-26T00:03:44.392Z,87.60
2018-11-26T00:06:37.032Z,93.85
2018-11-26T00:09:42.838Z,91.37
2018-11-26T00:12:38.691Z,94.97
2018-11-26T00:15:35.682Z,91.32
2018-11-26T00:18:32.263Z,98.70
2018-11-26T00:21:28.659Z,91.60
2018-11-26T00:24:25.192Z,87.47
2018-11-26T00:27:21.466Z,93.27
2018-11-26T00:30:18.408Z,82.50
2018-11-26T00:33:17.982Z,87.70
2018-11-26T00:36:14.277Z,91.65
2018-11-26T00:39:14.343Z,90.32
2018-11-26T00:42:10.510Z,84.80
2018-11-26T00:45:06.791Z,87.53
2018-11-26T00:48:03.349Z,88.52
2018-11-26T00:51:05.702Z,89.97
2018-11-26T00:54:01.754Z,79.85
2018-11-26T00:56:59.286Z,80.32
2018-11-26T00:59:55.669Z,94.47
2018-11-26T01:02:52.720Z,83.07
2018-11-26T01:05:49.514Z,90.45
2018-11-26T01:08:46.108Z,84.25
2018-11-26T01:11:42.523Z,80.03
2018-11-26T01:14:40.776Z,80.62
2018-11-26T01:17:38.008Z,88.42
2018-11-26T01:20:34.478Z,84.17
2018-11-26T01:23:30.819Z,79.82
2018-11-26T01:26:26.902Z,84.42
2018-11-26T01:29:23.889Z,87.95
2018-11-26T01:32:20.744Z,85.55
2018-11-26T01:35:17.031Z,88.75
2018-11-26T01:38:13.287Z,82.40
2018-11-26T01:41:09.856Z,82.30
2018-11-26T01:44:16.101Z,87.15
2018-11-26T01:47:11.938Z,92.88
2018-11-26T01:50:08.416Z,92.08
2018-11-26T01:53:09.193Z,90.07
2018-11-26T01:56:01.931Z,88.80
2018-11-26T01:58:58.323Z,91.60
2018-11-26T02:01:54.858Z,97.25
2018-11-26T02:04:51.372Z,86.72
2018-11-26T02:07:48.367Z,85.05
2018-11-26T02:10:44.873Z,91.97
2018-11-26T02:13:44.132Z,89.52
2018-11-26T02:16:43.860Z,82.72
2018-11-26T02:19:40.459Z,94.32
2018-11-26T02:22:36.975Z,94.30
2018-11-26T02:25:33.792Z,86.55
2018-11-26T02:28:30.378Z,93.70
2018-11-26T02:31:26.978Z,90.72
2018-11-26T02:34:23.568Z,95.75
2018-11-26T02:37:19.989Z,105.85
2018-11-26T02:40:27.431Z,104.67
2018-11-26T02:43:25.138Z,101.18
2018-11-26T02:46:22.473Z,100.87
2018-11-26T02:49:19.040Z,102.22
2018-11-26T02:52:16.192Z,93.70
2018-11-26T02:55:13.848Z,98.15
2018-11-26T02:58:11.689Z,91.87
2018-11-26T03:01:08.400Z,101.82
2018-11-26T03:04:05.452Z,105.47
2018-11-26T03:07:02.710Z,95.50
2018-11-26T03:09:58.783Z,94.75
2018-11-26T03:12:56.180Z,101.90
2018-11-26T03:15:53.463Z,103.87
2018-11-26T03:18:51.236Z,104.70
2018-11-26T03:21:47.819Z,106.67
2018-11-26T03:24:44.990Z,117.45
2018-11-26T03:27:41.602Z,111.68
2018-11-26T03:30:38.711Z,113.55
2018-11-26T03:33:41.888Z,113.42
2018-11-26T03:36:38.593Z,115.52
2018-11-26T03:39:39.115Z,108.78
2018-11-26T03:42:32.426Z,112.90
2018-11-26T03:45:29.026Z,122.00
2018-11-26T03:48:25.344Z,120.82
2018-11-26T03:51:22.011Z,117.82
2018-11-26T03:54:18.609Z,117.35
2018-11-26T03:57:18.051Z,123.02
2018-11-26T04:00:21.059Z,126.10
2018-11-26T04:03:17.435Z,110.42
2018-11-26T04:06:13.846Z,109.03
2018-11-26T04:09:11.856Z,114.15
2018-11-26T04:12:08.907Z,103.42
2018-11-26T04:15:05.537Z,97.27
2018-11-26T04:18:02.545Z,108.87
2018-11-26T04:20:59.306Z,96.85
2018-11-26T04:23:55.765Z,102.20
2018-11-26T04:26:52.749Z,97.50
2018-11-26T04:29:49.609Z,98.00
2018-11-26T04:32:46.299Z,100.70
2018-11-26T04:35:45.578Z,104.80
2018-11-26T04:38:41.660Z,100.65
2018-11-26T04:41:38.224Z,95.90
2018-11-26T04:44:35.616Z,91.45
2018-11-26T04:47:32.968Z,96.45
2018-11-26T04:50:29.881Z,91.05
2018-11-26T04:53:27.070Z,91.25
2018-11-26T04:56:24.443Z,86.17
2018-11-26T04:59:21.897Z,85.90
2018-11-26T05:02:18.523Z,91.57
2018-11-26T05:05:16.879Z,83.67
2018-11-26T05:19:45.031Z,135.80
2018-11-26T05:22:41.683Z,135.10
2018-11-26T05:25:39.917Z,124.72
2018-11-26T05:28:37.061Z,110.40
2018-11-26T05:31:34.001Z,115.57
2018-11-26T05:34:30.593Z,116.62
2018-11-26T05:37:28.304Z,111.05
2018-11-26T05:40:27.104Z,114.88
2018-11-26T05:43:24.802Z,93.20
2018-11-26T05:46:22.068Z,96.08
2018-11-26T05:49:18.953Z,90.70
2018-11-26T05:52:17.361Z,96.22
2018-11-26T05:55:16.391Z,89.42
2018-11-26T05:58:14.758Z,97.10
2018-11-26T06:01:11.882Z,75.25
2018-11-26T06:04:08.566Z,77.35
2018-11-26T06:07:04.952Z,75.57
2018-11-26T06:10:01.244Z,71.40
2018-11-26T06:12:57.987Z,78.37
2018-11-26T06:15:53.976Z,76.60
2018-11-26T06:18:50.226Z,78.33
2018-11-26T06:21:52.980Z,72.32
2018-11-26T06:24:58.842Z,70.10
2018-11-26T06:27:53.139Z,63.78
2018-11-26T06:30:49.599Z,62.15
2018-11-26T06:34:02.044Z,57.38
2018-11-26T06:37:01.916Z,63.58
2018-11-26T06:40:04.410Z,59.98
2018-11-26T06:43:01.957Z,59.10
2018-11-26T06:46:01.345Z,56.42
2018-11-26T06:49:06.818Z,50.65
2018-11-26T06:52:04.018Z,60.25
2018-11-26T06:55:09.290Z,59.42
2018-11-26T06:58:06.381Z,56.77
2018-11-26T07:01:03.299Z,51.60
2018-11-26T07:04:00.009Z,53.80
2018-11-26T07:06:56.261Z,53.35
2018-11-26T07:09:53.127Z,66.33
2018-11-26T07:12:52.178Z,55.98
2018-11-26T07:15:48.671Z,53.10
2018-11-26T07:18:46.783Z,54.58
2018-11-26T07:21:49.427Z,48.60
2018-11-26T07:24:46.172Z,56.45
2018-11-26T07:27:42.528Z,55.20
2018-11-26T07:30:38.553Z,50.80
2018-11-26T07:33:36.526Z,50.15
2018-11-26T07:36:34.189Z,52.20
2018-11-26T07:39:31.212Z,50.90
2018-11-26T07:42:28.560Z,51.68
2018-11-26T07:45:26.928Z,51.00
2018-11-26T07:48:29.268Z,48.17
2018-11-26T07:51:27.100Z,47.03
2018-11-26T07:54:24.680Z,47.88
2018-11-26T07:57:21.568Z,49.20
2018-11-26T08:00:18.985Z,45.78
2018-11-26T08:03:18.582Z,45.55
2018-11-26T08:06:19.373Z,47.35
2018-11-26T08:09:15.965Z,44.50
2018-11-26T08:12:12.489Z,45.28
2018-11-26T08:15:11.581Z,47.35
2018-11-26T08:18:09.523Z,46.77
2018-11-26T08:21:06.368Z,38.70
2018-11-26T08:24:02.829Z,48.65
2018-11-26T08:26:58.885Z,41.28
2018-11-26T08:29:54.795Z,45.50
2018-11-26T08:32:52.097Z,44.58
2018-11-26T08:35:49.244Z,45.23
2018-11-26T08:39:08.671Z,43.25
2018-11-26T08:42:25.710Z,42.13
2018-11-26T08:45:33.341Z,40.25
2018-11-26T08:48:31.147Z,43.95
2018-11-26T08:51:27.915Z,40.92
2018-11-26T08:54:25.123Z,45.70
2018-11-26T08:57:24.333Z,42.08
2018-11-26T09:00:20.989Z,44.27
2018-11-26T09:03:26.422Z,46.05
2018-11-26T09:06:23.399Z,39.92
2018-11-26T09:09:21.428Z,44.90
2018-11-26T09:12:17.773Z,42.95
2018-11-26T09:15:21.004Z,45.40
2018-11-26T09:18:18.433Z,37.58
2018-11-26T09:21:15.447Z,40.20
2018-11-26T09:24:13.155Z,43.48
2018-11-26T09:27:10.974Z,41.37
2018-11-26T09:30:10.664Z,45.63
2018-11-26T09:33:10.424Z,52.23
2018-11-26T09:36:09.543Z,49.70
2018-11-26T09:39:08.691Z,45.20
2018-11-26T09:42:08.608Z,54.25
2018-11-26T09:45:07.982Z,44.60
2018-11-26T09:48:06.897Z,45.10
2018-11-26T09:51:05.352Z,45.70
2018-11-26T09:54:06.405Z,40.52
2018-11-26T09:57:03.586Z,44.73
2018-11-26T10:00:00.762Z,46.95
2018-11-26T10:02:57.899Z,37.75
2018-11-26T10:05:55.595Z,56.95
2018-11-26T10:08:53.269Z,47.85
2018-11-26T10:11:51.029Z,47.53
2018-11-26T10:14:48.843Z,47.98
2018-11-26T10:17:45.517Z,40.88
2018-11-26T10:20:45.069Z,43.92
2018-11-26T10:23:41.483Z,46.60
2018-11-26T10:26:38.343Z,42.75
2018-11-26T10:29:33.941Z,48.85
2018-11-26T10:32:29.643Z,43.42
2018-11-26T10:35:25.790Z,50.90
2018-11-26T10:38:24.620Z,50.85
2018-11-26T10:41:21.347Z,48.33
2018-11-26T10:44:19.733Z,46.68
2018-11-26T10:47:17.289Z,44.18
2018-11-26T10:50:19.368Z,48.48
2018-11-26T10:53:17.276Z,41.55
2018-11-26T10:56:13.754Z,40.70
2018-11-26T10:59:10.487Z,37.85
2018-11-26T11:02:23.016Z,40.52
2018-11-26T11:05:19.120Z,35.15
2018-11-26T11:08:15.545Z,38.78
2018-11-26T11:11:12.041Z,39.55
2018-11-26T11:14:10.054Z,41.55
2018-11-26T11:17:06.769Z,40.58
2018-11-26T11:20:03.347Z,39.73
2018-11-26T11:23:00.434Z,42.90
2018-11-26T11:25:56.840Z,37.20
2018-11-26T11:28:52.693Z,39.65
2018-11-26T11:31:49.207Z,37.73
2018-11-26T11:34:45.672Z,48.17
2018-11-26T11:37:43.240Z,41.00
2018-11-26T11:40:39.717Z,40.70
2018-11-26T11:43:39.228Z,47.03
2018-11-26T11:46:36.460Z,40.48
2018-11-26T11:49:34.749Z,46.28
2018-11-26T11:52:33.411Z,38.23
2018-11-26T11:55:32.371Z,41.70
2018-11-26T11:58:31.404Z,42.08
2018-11-26T12:01:30.329Z,44.10
2018-11-26T12:04:28.845Z,40.65
2018-11-26T12:07:27.308Z,42.35
2018-11-26T12:10:25.556Z,46.18
2018-11-26T12:13:22.616Z,45.23
2018-11-26T12:16:20.081Z,51.18
2018-11-26T12:19:16.808Z,51.05
2018-11-26T12:22:15.263Z,51.98
2018-11-26T12:25:31.767Z,54.95
2018-11-26T12:28:36.409Z,54.35
2018-11-26T12:31:34.649Z,67.78
2018-11-26T12:34:31.413Z,64.20
2018-11-26T12:37:30.259Z,67.03
2018-11-26T12:40:27.681Z,74.35
2018-11-26T12:43:25.370Z,71.47
2018-11-26T12:46:22.459Z,72.90
2018-11-26T12:49:19.463Z,67.82
2018-11-26T12:52:16.983Z,74.10
2018-11-26T12:55:22.192Z,72.03
2018-11-26T12:58:20.091Z,70.62
2018-11-26T13:01:17.562Z,61.75
2018-11-26T13:04:16.924Z,69.95
2018-11-26T13:07:14.274Z,80.47
2018-11-26T13:10:11.762Z,72.30
2018-11-26T13:13:09.235Z,79.40
2018-11-26T13:16:05.168Z,84.75
2018-11-26T13:19:01.565Z,80.95
2018-11-26T13:21:57.598Z,73.02
2018-11-26T13:24:54.226Z,74.65
2018-11-26T13:27:54.951Z,75.45
2018-11-26T13:30:55.498Z,71.33
2018-11-26T13:33:52.053Z,67.53
2018-11-26T13:36:48.050Z,77.87
2018-11-26T13:39:45.113Z,65.90
2018-11-26T13:42:42.513Z,71.28
2018-11-26T13:45:49.284Z,60.38
2018-11-26T13:48:46.396Z,71.05
2018-11-26T13:51:42.941Z,68.02
2018-11-26T13:54:42.963Z,67.42
2018-11-26T13:57:39.331Z,73.92
2018-11-26T14:00:35.913Z,68.02
2018-11-26T14:03:32.420Z,68.57
2018-11-26T14:06:28.612Z,67.53
2018-11-26T14:09:25.140Z,65.60
2018-11-26T14:12:20.913Z,65.08
2018-11-26T14:15:19.087Z,63.33
2018-11-26T14:18:15.574Z,62.45
2018-11-26T14:21:11.754Z,64.47
2018-11-26T14:24:07.981Z,56.20
2018-11-26T14:27:04.159Z,70.28
2018-11-26T14:30:00.361Z,63.25
2018-11-26T14:32:56.572Z,63.17
2018-11-26T14:35:53.176Z,57.23
2018-11-26T14:38:49.215Z,62.90
2018-11-26T14:41:46.429Z,63.00
2018-11-26T14:44:43.199Z,62.08
2018-11-26T14:47:41.000Z,61.85
2018-11-26T14:50:38.053Z,56.63
2018-11-26T14:53:35.048Z,60.08
2018-11-26T14:56:32.560Z,57.08
2018-11-26T14:59:29.857Z,56.88
2018-11-26T15:02:27.925Z,60.63
2018-11-26T15:05:25.164Z,51.08
2018-11-26T15:08:22.425Z,56.68
2018-11-26T15:11:19.626Z,61.02
2018-11-26T15:14:17.178Z,52.27
2018-11-26T15:17:15.591Z,54.38
2018-11-26T15:20:18.117Z,57.00
2018-11-26T15:23:15.473Z,52.95
2018-11-26T15:26:13.195Z,61.25
2018-11-26T15:29:16.242Z,55.25
2018-11-26T15:32:16.961Z,55.40
2018-11-26T15:35:12.756Z,49.42
2018-11-26T15:38:10.272Z,54.70
2018-11-26T15:41:08.367Z,50.33
2018-11-26T15:44:05.911Z,54.65
2018-11-26T15:47:03.635Z,51.18
2018-11-26T15:50:01.367Z,57.98
2018-11-26T15:53:00.755Z,55.65
2018-11-26T15:56:01.878Z,50.00
2018-11-26T15:58:59.635Z,51.48
2018-11-26T16:01:57.189Z,54.13
2018-11-26T16:04:54.731Z,53.08
2018-11-26T16:07:56.786Z,53.10
2018-11-26T16:10:54.888Z,52.00
2018-11-26T16:13:56.482Z,50.20
2018-11-26T16:16:54.305Z,52.85
2018-11-26T16:19:54.679Z,46.18
2018-11-26T16:22:52.735Z,49.15
2018-11-26T16:25:51.385Z,48.42
2018-11-26T16:28:52.158Z,50.85
2018-11-26T16:31:49.707Z,54.33
2018-11-26T16:34:46.945Z,46.28
2018-11-26T16:37:44.236Z,49.60
2018-11-26T16:40:41.799Z,49.63
2018-11-26T16:43:39.191Z,46.00
2018-11-26T16:46:36.477Z,52.30
2018-11-26T16:49:34.012Z,47.78
2018-11-26T16:52:31.527Z,49.80
2018-11-26T16:55:30.425Z,47.55
2018-11-26T16:58:28.368Z,48.20
2018-11-26T17:01:26.577Z,49.90
2018-11-26T17:04:26.740Z,47.13
2018-11-26T17:07:24.324Z,43.75
2018-11-26T17:10:21.992Z,45.20
2018-11-26T17:13:20.484Z,47.45
2018-11-26T17:16:18.291Z,44.67
2018-11-26T17:19:15.464Z,45.90
2018-11-26T17:22:12.939Z,47.03
2018-11-26T17:25:11.029Z,49.40
2018-11-26T17:28:08.326Z,49.08
2018-11-26T17:31:05.604Z,46.02
2018-11-26T17:34:02.522Z,46.80
2018-11-26T17:36:59.675Z,46.25
2018-11-26T17:39:56.695Z,46.10
2018-11-26T17:42:54.244Z,45.55
2018-11-26T17:45:51.200Z,47.67
2018-11-26T17:48:48.446Z,45.85
2018-11-26T17:51:48.513Z,45.00
2018-11-26T17:54:44.792Z,47.60
2018-11-26T17:57:40.765Z,44.45
2018-11-26T18:00:38.442Z,52.38
2018-11-26T18:03:35.286Z,49.58
2018-11-26T18:06:31.274Z,43.98
2018-11-26T18:09:31.002Z,46.08
2018-11-26T18:12:26.989Z,46.28
2018-11-26T18:15:23.091Z,49.08
2018-11-26T18:18:20.436Z,46.75
2018-11-26T18:21:16.519Z,45.95
2018-11-26T18:24:13.007Z,43.45
2018-11-26T18:27:09.386Z,45.33
2018-11-26T18:30:05.683Z,45.45
2018-11-26T18:33:02.534Z,45.28
2018-11-26T18:36:01.474Z,47.58
2018-11-26T18:38:57.809Z,51.92
2018-11-26T18:41:55.313Z,48.38
2018-11-26T18:44:51.644Z,45.85
2018-11-26T18:47:48.408Z,45.38
2018-11-26T18:50:44.941Z,43.70
2018-11-26T18:53:41.101Z,48.20
2018-11-26T18:56:37.626Z,44.13
2018-11-26T18:59:34.071Z,47.70
2018-11-26T19:02:30.648Z,41.15
2018-11-26T19:05:27.117Z,44.27
2018-11-26T19:08:23.288Z,43.50
2018-11-26T19:11:24.240Z,41.10
2018-11-26T19:14:30.597Z,45.33
2018-11-26T19:17:27.513Z,41.42
2018-11-26T19:20:24.389Z,46.73
2018-11-26T19:23:24.328Z,44.50
2018-11-26T19:26:20.914Z,43.35
2018-11-26T19:29:20.673Z,45.60
2018-11-26T19:32:13.837Z,43.25
2018-11-26T19:35:11.155Z,45.23
2018-11-26T19:38:07.197Z,41.85
2018-11-26T19:41:03.155Z,42.55
2018-11-26T19:43:59.301Z,40.70
2018-11-26T19:46:55.589Z,42.05
2018-11-26T19:49:51.756Z,42.15
2018-11-26T19:52:52.594Z,43.15
2018-11-26T19:55:49.250Z,44.75
2018-11-26T19:58:45.272Z,47.27
2018-11-26T20:01:42.061Z,41.33
2018-11-26T20:04:53.891Z,41.85
2018-11-26T20:07:49.980Z,43.95
2018-11-26T20:10:46.510Z,47.35
2018-11-26T20:13:42.813Z,44.60
2018-11-26T20:16:44.879Z,42.78
2018-11-26T20:19:41.608Z,45.15
2018-11-26T20:22:40.076Z,45.10
2018-11-26T20:25:35.893Z,44.40
2018-11-26T20:28:32.347Z,49.03
2018-11-26T20:31:28.784Z,51.70
2018-11-26T20:34:24.863Z,46.02
2018-11-26T20:37:21.263Z,44.33
2018-11-26T20:40:21.665Z,46.83
2018-11-26T20:43:24.379Z,47.43
2018-11-26T20:46:20.904Z,47.33
2018-11-26T20:49:17.276Z,49.33
2018-11-26T20:52:13.646Z,47.38
2018-11-26T20:55:11.110Z,47.15
2018-11-26T20:58:07.420Z,56.33
2018-11-26T21:01:03.517Z,49.75
2018-11-26T21:04:03.930Z,58.73
2018-11-26T21:07:00.841Z,63.92
2018-11-26T21:09:57.063Z,57.40
2018-11-26T21:12:53.386Z,56.28
2018-11-26T21:15:50.764Z,58.68
2018-11-26T21:18:47.239Z,59.48
2018-11-26T21:21:43.406Z,50.52
2018-11-26T21:24:39.681Z,60.17
2018-11-26T21:27:35.993Z,59.63
2018-11-26T21:30:32.365Z,61.45
2018-11-26T21:33:28.773Z,66.30
2018-11-26T21:36:24.652Z,64.90
2018-11-26T21:39:21.194Z,63.75
2018-11-26T21:42:21.025Z,60.40
2018-11-26T21:45:22.027Z,64.42
2018-11-26T21:48:18.789Z,65.57
2018-11-26T21:51:15.294Z,69.10
2018-11-26T21:54:11.679Z,66.90
2018-11-26T21:57:08.411Z,72.00
2018-11-26T22:00:07.105Z,66.42
2018-11-26T22:03:15.309Z,70.55
2018-11-26T22:06:12.347Z,63.85
2018-11-26T22:09:09.252Z,71.40
2018-11-26T22:12:05.273Z,73.75
2018-11-26T22:15:01.260Z,71.85
2018-11-26T22:18:01.083Z,68.57
2018-11-26T22:20:57.387Z,78.25
2018-11-26T22:23:53.826Z,80.92
2018-11-26T22:26:50.270Z,74.75
2018-11-26T22:29:46.867Z,75.50
2018-11-26T22:32:43.336Z,76.05
2018-11-26T22:35:39.825Z,86.50
2018-11-26T22:38:36.205Z,83.40
2018-11-26T22:41:33.156Z,77.42
2018-11-26T22:44:29.165Z,75.28
2018-11-26T22:47:25.281Z,83.15
2018-11-26T22:50:23.191Z,87.08
2018-11-26T22:53:19.986Z,92.97
2018-11-26T22:56:16.151Z,87.08
2018-11-26T22:59:12.607Z,79.85
2018-11-26T23:02:08.833Z,92.42
2018-11-26T23:05:05.099Z,93.60
2018-11-26T23:08:01.512Z,89.30
2018-11-26T23:10:57.825Z,77.62
2018-11-26T23:13:54.541Z,84.92
2018-11-26T23:16:51.011Z,87.08
2018-11-26T23:19:47.093Z,85.47
2018-11-26T23:22:43.399Z,78.72
2018-11-26T23:25:39.437Z,81.30
2018-11-26T23:28:35.717Z,78.75
2018-11-26T23:31:32.004Z,81.37
2018-11-26T23:34:27.746Z,75.57
2018-11-26T23:37:30.373Z,81.15
2018-11-26T23:40:27.734Z,79.00
2018-11-26T23:43:23.570Z,81.30
2018-11-26T23:46:23.723Z,79.90
2018-11-26T23:49:20.222Z,79.42
2018-11-26T23:52:17.027Z,76.00
2018-11-26T23:55:17.481Z,82.92
2018-11-26T23:58:14.107Z,75.97
